Bald Eagle
, Park City
Last Weather Update:1/31/2012
Date
ETo
ETc
Rain
Irrigation
Req
Temp
Max
Temp
Min
Temp
Avg
Avg RH
Avg Wind
Avg Solar
inches
inches
incehs
inches
F
F
F
%
%
watts/m2
12/1/2011 0.02" 0.00" 0.00" 0.00" 20.0° 9.8° 16.2° 92.8% 7.6 MPH 91.2w/m2
12/2/2011 0.03" 0.00" 0.00" 0.00" 33.1° 8.2° 21.1° 94.7% 3.9 MPH 97.5w/m2
12/3/2011 0.02" 0.00" 0.00" 0.00" 17.9° 9.3° 12.7° 73.8% 7.1 MPH 115.5w/m2
12/4/2011 0.01" 0.00" 0.00" 0.00" 15.9° 5.2° 11.1° 90.6% 4.7 MPH 27.9w/m2
12/5/2011 0.01" 0.00" 0.07" -0.06" 17.6° F 4.1° 63.8% 2.6 MPH 49.1w/m2
12/6/2011 0.02" 0.00" 0.00" 0.00" 20.4° 3.2° 10.4° 83.2% 1.6 MPH 98.7w/m2
12/7/2011 0.03" 0.00" 0.01" -0.01" 38.2° 13.6° 23.8° 65.6% 1.9 MPH 112.4w/m2
12/8/2011 0.03" 0.00" 0.00" 0.00" 31.0° 18.3° 23.8° 69.9% 3.7 MPH 114.9w/m2
12/9/2011 0.03" 0.00" 0.00" 0.00" 34.7° 17.7° 23.8° 47.1% 1.6 MPH 113.8w/m2
12/10/2011 0.04" 0.00" 0.00" 0.00" 39.5° 19.4° 28.3° 57.7% 2.8 MPH 116.6w/m2
12/11/2011 0.05" 0.00" 0.00" 0.00" 39.1° 26.3° 30.1° 46.6% 4.9 MPH 110.6w/m2
12/12/2011 0.03" 0.00" 0.00" 0.00" 32.9° 19.2° 24.1° 89.2% 4.4 MPH 91.3w/m2
12/13/2011 0.01" 0.00" 0.04" -0.03" 28.1° 18.7° 23.2° 97.2% 2.7 MPH 47.8w/m2
12/14/2011 0.02" 0.00" 0.01" -0.01" 27.0° 14.9° 18.9° 78.7% 2.0 MPH 69.0w/m2
12/15/2011 0.03" 0.00" 0.01" -0.01" 32.0° 14.4° 20.0° 68.8% 1.8 MPH 91.0w/m2
12/16/2011 0.03" 0.00" 0.00" 0.00" 27.1° 14.1° 20.1° 43.8% 3.2 MPH 109.2w/m2
12/17/2011 0.04" 0.00" 0.00" 0.00" 38.9° 21.3° 30.1° 49.1% 2.5 MPH 110.0w/m2
12/18/2011 0.05" 0.00" 0.00" 0.00" 46.9° 28.7° 36.4° 35.3% 2.2 MPH 110.6w/m2
12/19/2011 0.03" 0.00" 0.00" 0.00" 29.9° 17.5° 22.0° 92.6% 5.9 MPH 109.4w/m2
12/20/2011 0.02" 0.00" 0.00" 0.00" 30.1° 15.9° 21.2° 72.0% 4.7 MPH 104.2w/m2
12/21/2011 0.01" 0.00" 0.00" 0.00" 24.3° 9.5° 15.6° 90.4% 6.8 MPH 49.4w/m2
12/22/2011 0.02" 0.00" 0.00" 0.00" 16.4° 8.2° 11.1° 46.2% 6.5 MPH 99.6w/m2
12/23/2011 0.05" 0.00" 0.00" 0.00" 27.1° 10.2° 19.7° 24.4% 6.1 MPH 109.7w/m2
12/24/2011 0.05" 0.00" 0.00" 0.00" 34.1° 17.8° 25.4° 39.3% 4.6 MPH 109.9w/m2
12/25/2011 0.04" 0.00" 0.00" 0.00" 47.1° 26.1° 34.2° 46.9% 1.9 MPH 111.1w/m2
12/26/2011 0.04" 0.00" 0.00" 0.00" 38.6° 25.3° 30.9° 24.9% 2.8 MPH 104.4w/m2
12/27/2011 0.04" 0.00" 0.00" 0.00" 34.0° 23.5° 28.7° 57.3% 3.9 MPH 90.0w/m2
12/28/2011 0.03" 0.00" 0.00" 0.00" 42.8° 24.3° 33.9° 59.8% 3.0 MPH 66.0w/m2
12/29/2011 0.03" 0.00" 0.17" -0.14" 40.8° 31.6° 35.2° 61.0% 6.7 MPH 71.1w/m2
12/30/2011 0.06" 0.00" 0.00" 0.00" 45.2° 32.3° 38.0° 42.4% 7.1 MPH 80.7w/m2
12/31/2011 0.03" 0.00" 0.01" -0.01" 39.9° 12.5° 19.0° 28.7% 8.2 MPH 104.9w/m2
Totals: 0.95" 0.00" 0.32" -0.26" 47.1° F 23.0° 62.4% 4.2 MPH 93.1w/m2